Big Sur, CA (93920)

11:07 PM PDT on October 24, 2014 (GMT -0700)
Cachagua | Change Station
CLOSE
Current Station
Personal Weather Station
Location: Carmel Valley, CA
Elevation: 850 ft
Nearby Weather Stations

Elev 850 ft 36.40 °N, 121.65 °W | Updated 9 seconds ago

Clear
Clear
49.3 °F
Feels Like 49 °F
N
0.0
Wind Variable Wind from North
Gusts 1.6 mph

Today
High -- | Low -- °F
--% Chance of Precip.
Yesterday
High -- | Low -- °F
Precip. -- in
7:21 AM 6:19 PM
New Moon, 2% visible
Pressure 30.01 in
Visibility 10.0 miles
Clouds Clear
Windchill 49 °F
Dew Point 46 °F
Humidity 88%
Rainfall 0.00 in
Snow Depth Not available.
UV out of 12
Pollen 2.60 out of 12
Air Quality Not available.
Flu Activity Sporadic
METAR KMRY 250554Z AUTO 08004KT 10SM CLR 14/12 A2998 RMK AO2 SLP162 T01390117 10178 20139 53010

More Conditions Fewer Conditions

Pressure 30.01 in
Visibility 10.0 miles
Clouds Clear
Windchill 49 °F
Dew Point 46 °F
Humidity 88%
Rainfall 0.00 in
Snow Depth Not available.
UV out of 12
Pollen 2.60 out of 12
Air Quality Not available.
Flu Activity Sporadic
METAR KMRY 250554Z AUTO 08004KT 10SM CLR 14/12 A2998 RMK AO2 SLP162 T01390117 10178 20139 53010

More Conditions Fewer Conditions

10-Day Weather Forecast

Almanac

Astronomy

Oct. 24, 2014 Rise Set
Actual Time 7:21 AM PDT 6:19 PM PDT
Civil Twilight 6:55 AM PDT 6:45 PM PDT
Nautical Twilight 6:25 AM PDT 7:15 PM PDT
Astronomical Twilight 5:55 AM PDT 7:45 PM PDT
Moon 8:05 AM PDT (10/24) 7:04 PM PDT (10/24)
Length of Visible Light 11h 49m
Length of Day
10h 57m
Tomorrow will be 2m 6s shorter.
New Moon, 2% of the Moon is Illuminated
Oct 25
New Moon
Oct 30
First Quarter
Nov 6
Full
Nov 14
Last Quarter
Nov 22
New

Yesterday's Extremes

State Highs State Lows

Community

WunderPhotos

Upload Photos

1,764,785 photos uploaded!

Nearby

Snow Depth

Station Depth Elevation
Leavitt Lake 1 in 9400 ft
Virginia Lakes Ridge 0 in 9200 ft
Leavitt Meadows 1 in 7200 ft
Blue Lakes 0 in 8000 ft
Summit Meadow 1 in 9122 ft

Earthquake Activity

City Distance Mag. Time & Date
Coalinga, California 64 miles 2.5 11:01 PM PDT
2014-10-24
Solvang, California 145 miles 2.6 5:35 PM PDT
2014-10-22
Kettleman City, California 106 miles 2.5 9:08 AM PDT
2014-10-22
Minimum magnitude displayed is 2.5.

Coastal Water Temperatures

Place Temperature
Port San Luis, CA 63.0 °F

Nearby Weather Stations